Aviation Digital Data Service (ADDS)

Output produced by METARs form (1210 UTC 15 November 2018)
found at http://www.aviationweather.gov/metar/data/
 
TGPY 150922Z 1512/1612 11014KT 9999 SCT018 
     BECMG 1522/1524 09010KT 
     PROB40 
     TEMPO 1603/1609 6000 SHRA BKN017 
     BECMG 1610/1612 11014KT FEW020